West Newbury, VT (05085)

11:29 AM EDT on May 29, 2015 (GMT -0400)
Goshen Heights | | Change Station
CLOSE
Current Station
Personal Weather Station
Location: Bradford, VT
Elevation: 1060 ft
Nearby Weather Stations

Elev 1060 ft 44.01 °N, 72.14 °W | Updated 0 second ago

Clear
Clear
69.4 °F
Feels Like 69.4 °F
N
0.0
Wind Variable Wind from SE
Gusts 0.0 mph

Today
High -- | Low -- °F
--% Chance of Precip.
Yesterday
High -- | Low -- °F
Precip. -- in
5:10 AM 8:21 PM
Waxing Gibbous, 84% visible
Pressure 30.35 in
Visibility 10.0 miles
Clouds Clear
Dew Point 67 °F
Humidity 92%
Rainfall 0.00 in
Snow Depth Not available.
UV 10 out of 12
Pollen 9.20 out of 12
Air Quality Not available.
Flu Activity Local Activity
METAR KMPV 291451Z AUTO 00000KT 10SM CLR 20/12 A3035 RMK AO2 SLP277 T02000117 58009

More Conditions Fewer Conditions

Pressure 30.35 in
Visibility 10.0 miles
Clouds Clear
Dew Point 67 °F
Humidity 92%
Rainfall 0.00 in
Snow Depth Not available.
UV 10 out of 12
Pollen 9.20 out of 12
Air Quality Not available.
Flu Activity Local Activity
METAR KMPV 291451Z AUTO 00000KT 10SM CLR 20/12 A3035 RMK AO2 SLP277 T02000117 58009

More Conditions Fewer Conditions

10-Day Weather Forecast

Almanac

Astronomy

May. 29, 2015 Rise Set
Actual Time
Civil Twilight
Nautical Twilight
Astronomical Twilight
Moon
Length of Visible Light
Length of Day
Tomorrow will be .
, % of the Moon is Illuminated

Today's Extremes

State Highs State Lows

Community

WunderPhotos

Upload Photos

1,825,291 photos uploaded!

WunderBlogs® & News

Nearby

Air Quality

  Air Quality AQ Index Pollutant
Not available.

Snow Depth

Station Depth Elevation

Earthquake Activity

City Distance Mag. Time & Date
Minimum magnitude displayed is 2.5.

Coastal Water Temperatures

Place Temperature

Stations

Nearby Weather Stations

Station Location Temp. Windchill Dew Point Humidity Wind Precip. Elev Updated Type